^^
Meteo Knjazevac Station Historical Data
Daily Summary for January 26, 2021 Units:  English    Metric   Both
Daily Weekly Monthly Yearly Custom
  High: Low: Average:
Temperature: 38.7 °F 32.4 °F 34.2 °F
Dew Point: 38.4 °F 32.1 °F 33.9 °F
Humidity: 99% 98% 99%
Wind Speed: 10mph 0mph 3mph
Wind Gust: 15mph - -
Wind- - SE
Pressure: 29.86 in 29.68 in -
Precipitation: 0.14 in    
Historical Graphs
 
 
Tabular Data for January 26, 2021
Time Temperature Dew Point Pressure Wind Wind Speed Wind Gust Humidity Rainfall Rate (Hourly) solar Conditions
00:00 38.1 °F 37.9 °F 29.69 in SSE 2 mph 11 mph 99% 0.01 in 0 W/m2
00:10 38.1 °F 37.9 °F 29.69 in SSE 1 mph 7 mph 99% 0.01 in 0 W/m2
00:20 38.3 °F 38 °F 29.69 in SSW 2 mph 4 mph 99% 0.01 in 0 W/m2
00:30 38.5 °F 38.2 °F 29.69 in SE 6 mph 12 mph 99% 0.00 in 0 W/m2
00:40 38.7 °F 38.2 °F 29.69 in ESE 2 mph 12 mph 98% 0.00 in 0 W/m2
00:50 38.7 °F 38.1 °F 29.68 in ESE 3 mph 8 mph 98% 0.00 in 0 W/m2
01:00 38.7 °F 38.4 °F 29.68 in NNE 3 mph 7 mph 99% 0.00 in 0 W/m2
01:10 38.3 °F 38 °F 29.69 in NNE 6 mph 14 mph 99% 0.00 in 0 W/m2
01:20 37.7 °F 37.5 °F 29.69 in North 7 mph 12 mph 99% 0.00 in 0 W/m2
01:30 36.9 °F 36.6 °F 29.69 in NNE 9 mph 14 mph 99% 0.01 in 0 W/m2
01:40 36.5 °F 36.2 °F 29.69 in NNE 7 mph 14 mph 99% 0.01 in 0 W/m2
01:50 36.3 °F 36.1 °F 29.69 in NNE 6 mph 11 mph 99% 0.01 in 0 W/m2
02:00 36.1 °F 35.9 °F 29.69 in NNE 5 mph 12 mph 99% 0.01 in 0 W/m2
02:10 36 °F 35.7 °F 29.69 in NNE 7 mph 12 mph 99% 0.01 in 0 W/m2
02:20 35.7 °F 35.5 °F 29.69 in NNE 10 mph 15 mph 99% 0.01 in 0 W/m2
02:30 35.4 °F 35.1 °F 29.69 in NNE 10 mph 15 mph 99% 0.01 in 0 W/m2
02:40 35.2 °F 34.9 °F 29.69 in NNE 6 mph 15 mph 99% 0.01 in 0 W/m2
02:50 35.1 °F 34.8 °F 29.69 in NNE 7 mph 12 mph 99% 0.01 in 0 W/m2
03:00 34.9 °F 34.6 °F 29.70 in NNE 6 mph 13 mph 99% 0.01 in 0 W/m2
03:10 34.7 °F 34.4 °F 29.69 in NNE 6 mph 12 mph 99% 0.00 in 0 W/m2
03:20 34.5 °F 34.3 °F 29.70 in NNE 7 mph 12 mph 99% 0.00 in 0 W/m2
03:30 34.3 °F 34.1 °F 29.70 in NNE 6 mph 11 mph 99% 0.00 in 0 W/m2
03:40 34.2 °F 33.9 °F 29.70 in NNE 3 mph 9 mph 99% 0.00 in 0 W/m2
03:50 34.2 °F 33.9 °F 29.70 in NNE 7 mph 14 mph 99% 0.01 in 0 W/m2
04:00 34 °F 33.7 °F 29.71 in NNE 7 mph 14 mph 99% 0.01 in 0 W/m2
04:10 34 °F 33.7 °F 29.72 in NNE 2 mph 13 mph 99% 0.01 in 0 W/m2
04:20 33.8 °F 33.5 °F 29.72 in NNE 5 mph 12 mph 99% 0.00 in 0 W/m2
04:30 33.4 °F 33.2 °F 29.73 in North 7 mph 10 mph 99% 0.00 in 0 W/m2
04:40 33.1 °F 32.8 °F 29.73 in NNE 5 mph 10 mph 99% 0.00 in 0 W/m2
04:50 32.9 °F 32.7 °F 29.73 in NE 3 mph 12 mph 99% 0.00 in 0 W/m2
05:00 32.7 °F 32.5 °F 29.74 in South 2 mph 6 mph 99% 0.00 in 0 W/m2
05:10 32.7 °F 32.5 °F 29.74 in South 1 mph 5 mph 99% 0.00 in 0 W/m2
05:20 32.5 °F 32.3 °F 29.74 in SE 1 mph 5 mph 99% 0.00 in 0 W/m2
05:30 32.5 °F 32.3 °F 29.75 in SSE 2 mph 5 mph 99% 0.00 in 0 W/m2
05:40 32.5 °F 32.3 °F 29.75 in SSE 1 mph 3 mph 99% 0.00 in 0 W/m2
05:50 32.5 °F 32.3 °F 29.76 in South 1 mph 6 mph 99% 0.00 in 0 W/m2
06:00 32.5 °F 32.3 °F 29.76 in SSE 1 mph 7 mph 99% 0.00 in 0 W/m2
06:10 32.4 °F 32.1 °F 29.77 in SSE 1 mph 5 mph 99% 0.00 in 0 W/m2
06:20 32.5 °F 32.3 °F 29.77 in SSE 1 mph 5 mph 99% 0.00 in 0 W/m2
06:30 32.5 °F 32.3 °F 29.77 in SSE 2 mph 5 mph 99% 0.00 in 0 W/m2
06:40 32.4 °F 32.1 °F 29.77 in SSE 1 mph 5 mph 99% 0.00 in 0 W/m2
06:50 32.4 °F 32.1 °F 29.78 in SW 2 mph 4 mph 99% 0.00 in 0 W/m2
07:00 32.4 °F 32.1 °F 29.79 in SW 2 mph 4 mph 99% 0.00 in 0 W/m2
07:10 32.4 °F 32.1 °F 29.79 in West 1 mph 5 mph 99% 0.00 in 0 W/m2
07:20 32.4 °F 32.1 °F 29.79 in WSW 1 mph 5 mph 99% 0.00 in 1 W/m2
07:30 32.4 °F 32.1 °F 29.80 in SSE 1 mph 4 mph 99% 0.00 in 1 W/m2
07:40 32.4 °F 32.1 °F 29.81 in SSW 1 mph 3 mph 99% 0.00 in 2 W/m2
07:50 32.4 °F 32.1 °F 29.82 in SW 1 mph 3 mph 99% 0.00 in 3 W/m2
08:00 32.4 °F 32.1 °F 29.81 in South 1 mph 3 mph 99% 0.00 in 4 W/m2
08:10 32.4 °F 32.1 °F 29.82 in NE 1 mph 5 mph 99% 0.00 in 6 W/m2
08:20 32.5 °F 32.3 °F 29.82 in NNW 2 mph 4 mph 99% 0.00 in 7 W/m2
08:30 32.5 °F 32.3 °F 29.82 in NNW 2 mph 4 mph 99% 0.00 in 10 W/m2
08:40 32.5 °F 32.3 °F 29.83 in ENE 1 mph 3 mph 99% 0.00 in 14 W/m2
08:50 32.5 °F 32.3 °F 29.83 in SSW 1 mph 3 mph 99% 0.00 in 15 W/m2
09:00 32.7 °F 32.5 °F 29.83 in Calm   2 mph 99% 0.00 in 20 W/m2
09:10 32.9 °F 32.7 °F 29.84 in WNW 1 mph 3 mph 99% 0.00 in 22 W/m2
09:20 33 °F 32.7 °F 29.84 in Calm   2 mph 99% 0.00 in 27 W/m2
09:30 33.1 °F 32.8 °F 29.84 in NNW 2 mph 4 mph 99% 0.00 in 28 W/m2
09:40 33.3 °F 33 °F 29.85 in NW 1 mph 4 mph 99% 0.00 in 33 W/m2
09:50 33.4 °F 33.2 °F 29.85 in West 1 mph 2 mph 99% 0.00 in 25 W/m2
10:00 33.4 °F 33.2 °F 29.85 in West 1 mph 2 mph 99% 0.00 in 28 W/m2
10:10 33.4 °F 33.2 °F 29.86 in WNW 1 mph 3 mph 99% 0.00 in 29 W/m2
10:20 33.5 °F 33.3 °F 29.86 in West 1 mph 3 mph 99% 0.00 in 29 W/m2
10:30 33.6 °F 33.4 °F 29.85 in WSW 1 mph 3 mph 99% 0.00 in 34 W/m2
10:40 33.6 °F 33.4 °F 29.85 in WSW 1 mph 2 mph 99% 0.00 in 35 W/m2
10:50 33.8 °F 33.5 °F 29.85 in WSW 1 mph 2 mph 99% 0.00 in 32 W/m2
11:00 33.8 °F 33.5 °F 29.85 in WNW 1 mph 2 mph 99% 0.00 in 39 W/m2
11:10 34 °F 33.7 °F 29.85 in NNW 1 mph 2 mph 99% 0.00 in 46 W/m2
Knjazevac, Serbia
Compliments of Weather Underground - 2 mb